Main page
METAR-TAF:

METAR-TAF

Airports :

Čáslav, Czech Republic

latitude: 49-56-23N, longitude: 15-22-55E, elevation: 242 m

Current weather observation

The report was made 33 minutes ago, at 00:18 UTC
Wind 7 kt from the East/Northeast
Temperature 1°C
Humidity 100%
Pressure 1015 hPa
Visibility: 5000 m
Broken clouds at a height of 700 ft
Overcast at a height of 1600 ft
mist

METAR: LKCV 210018Z 07007KT 5000 BR BKN007 OVC016 01/01 Q1015 NOSIG RMK GRN

Time: 01:51 (00:51 UTC)

Forecast

The report was made 1 hour and 51 minutes ago, at 23:00 UTC
Forecast valid from 21 at 00 UTC to 22 at 00 UTC
Wind 8 kt from the East/Northeast
Visibility: 7000 m
Broken clouds at a height of 1500 ft
Overcast at a height of 2000 ft
Probability 40% :
Temporary
from 21 at 03 UTC to 21 at 12 UTC
Visibility: 3000 m
Overcast at a height of 700 ft
drizzle

TAF: LKCV 202300Z 2100/2200 07008KT 7000 BKN015 OVC020 PROB40 TEMPO 2103/2112 3000 DZ OVC007

Weather observations and forecasts of more than 4000 airports (METAR and TAF reports).

The available stations are represented by yellow and red dots on the map.

Hover mouse over dot to see the name of the station.

Then click to see weather observations and forecasts.

To change the map : click on the green buttons with a black cross to zoom in, on the green button with a dash to zoom out, or on the green arrows for adjacent maps.


METAR-TAF: